createdAt,value
2018-09-10T00:00:07.370Z,36.40
2018-09-10T00:02:37.015Z,36.30
2018-09-10T00:05:06.977Z,36.90
2018-09-10T00:07:36.202Z,36.80
2018-09-10T00:10:06.634Z,36.70
2018-09-10T00:12:35.657Z,37.20
2018-09-10T00:15:04.976Z,37.40
2018-09-10T00:17:34.308Z,37.60
2018-09-10T00:20:03.647Z,37.70
2018-09-10T00:22:32.703Z,38.10
2018-09-10T00:25:02.220Z,38.00
2018-09-10T00:27:31.445Z,38.10
2018-09-10T00:30:01.289Z,38.50
2018-09-10T00:32:30.642Z,38.90
2018-09-10T00:34:59.617Z,38.60
2018-09-10T00:37:28.622Z,39.30
2018-09-10T00:39:57.881Z,39.30
2018-09-10T00:42:26.957Z,39.00
2018-09-10T00:44:56.879Z,39.60
2018-09-10T00:47:26.663Z,39.70
2018-09-10T00:49:55.829Z,39.70
2018-09-10T00:52:25.053Z,39.40
2018-09-10T00:54:54.081Z,39.50
2018-09-10T00:57:23.125Z,40.50
2018-09-10T00:59:52.513Z,39.50
2018-09-10T01:02:22.790Z,39.80
2018-09-10T01:04:52.210Z,39.90
2018-09-10T01:07:21.356Z,39.50
2018-09-10T01:09:51.062Z,39.60
2018-09-10T01:12:20.394Z,40.10
2018-09-10T01:14:49.638Z,40.30
2018-09-10T01:17:19.689Z,40.80
2018-09-10T01:19:48.557Z,41.10
2018-09-10T01:22:17.649Z,40.20
2018-09-10T01:24:47.670Z,40.10
2018-09-10T01:27:16.826Z,40.30
2018-09-10T01:29:45.821Z,40.50
2018-09-10T01:32:16.389Z,40.90
2018-09-10T01:34:50.639Z,41.80
2018-09-10T01:37:20.255Z,41.20
2018-09-10T01:39:49.561Z,41.80
2018-09-10T01:42:18.760Z,41.60
2018-09-10T01:44:48.680Z,41.80
2018-09-10T01:47:17.802Z,42.10
2018-09-10T01:49:46.818Z,42.10
2018-09-10T01:52:15.959Z,42.00
2018-09-10T01:54:45.042Z,42.40
2018-09-10T01:57:14.049Z,42.90
2018-09-10T01:59:44.483Z,42.70
2018-09-10T02:02:13.524Z,42.80
2018-09-10T02:04:42.515Z,43.00
2018-09-10T02:07:11.661Z,43.10
2018-09-10T02:09:40.747Z,43.10
2018-09-10T02:12:15.324Z,42.70
2018-09-10T02:14:44.334Z,43.20
2018-09-10T02:17:13.445Z,42.00
2018-09-10T02:19:42.613Z,42.60
2018-09-10T02:22:11.724Z,43.00
2018-09-10T02:24:40.882Z,42.10
2018-09-10T02:27:10.422Z,41.70
2018-09-10T02:29:39.379Z,42.80
2018-09-10T02:32:09.437Z,41.90
2018-09-10T02:34:38.522Z,41.30
2018-09-10T02:37:07.630Z,42.30
2018-09-10T02:39:37.499Z,42.10
2018-09-10T02:42:06.770Z,41.70
2018-09-10T02:44:36.010Z,41.60
2018-09-10T02:47:06.946Z,41.10
2018-09-10T02:49:35.949Z,41.30
2018-09-10T02:52:05.140Z,41.10
2018-09-10T02:54:34.432Z,40.60
2018-09-10T02:57:03.734Z,41.50
2018-09-10T02:59:32.669Z,41.00
2018-09-10T03:02:02.261Z,40.50
2018-09-10T03:04:31.505Z,41.20
2018-09-10T03:07:00.565Z,40.80
2018-09-10T03:09:30.299Z,41.40
2018-09-10T03:12:00.026Z,40.40
2018-09-10T03:14:29.250Z,40.30
2018-09-10T03:16:59.756Z,40.80
2018-09-10T03:19:30.407Z,41.20
2018-09-10T03:21:59.646Z,41.50
2018-09-10T03:24:29.000Z,40.90
2018-09-10T03:26:58.649Z,41.30
2018-09-10T03:29:28.000Z,41.90
2018-09-10T03:31:57.649Z,42.30
2018-09-10T03:34:26.747Z,42.40
2018-09-10T03:36:55.973Z,42.30
2018-09-10T03:39:25.157Z,42.90
2018-09-10T03:41:54.582Z,42.90
2018-09-10T03:44:24.590Z,42.70
2018-09-10T03:46:54.626Z,42.70
2018-09-10T03:49:26.774Z,42.60
2018-09-10T03:52:00.384Z,43.00
2018-09-10T03:54:29.904Z,43.10
2018-09-10T03:56:59.137Z,43.10
2018-09-10T03:59:29.926Z,43.10
2018-09-10T04:01:59.068Z,43.10
2018-09-10T04:04:28.391Z,43.00
2018-09-10T04:06:57.534Z,43.00
2018-09-10T04:09:26.524Z,43.20
2018-09-10T04:11:55.763Z,43.80
2018-09-10T04:14:24.970Z,43.00
2018-09-10T04:16:53.944Z,43.40
2018-09-10T04:19:23.885Z,43.40
2018-09-10T04:21:52.894Z,43.60
2018-09-10T04:24:22.072Z,43.90
2018-09-10T04:26:52.205Z,43.90
2018-09-10T04:29:21.355Z,44.10
2018-09-10T04:31:50.578Z,44.00
2018-09-10T04:34:19.715Z,44.40
2018-09-10T04:36:49.690Z,44.10
2018-09-10T04:39:18.734Z,44.30
2018-09-10T04:41:48.645Z,44.70
2018-09-10T04:44:17.778Z,44.50
2018-09-10T04:46:46.887Z,44.40
2018-09-10T04:49:17.929Z,44.40
2018-09-10T04:51:47.046Z,44.40
2018-09-10T04:54:16.168Z,43.70
2018-09-10T04:56:45.943Z,44.10
2018-09-10T04:59:15.837Z,44.00
2018-09-10T05:01:44.835Z,44.20
2018-09-10T05:04:14.279Z,43.00
2018-09-10T05:06:43.379Z,42.80
2018-09-10T05:09:12.482Z,44.30
2018-09-10T05:11:42.760Z,43.40
2018-09-10T05:14:11.868Z,43.00
2018-09-10T05:16:41.321Z,43.60
2018-09-10T05:19:14.617Z,43.50
2018-09-10T05:21:43.876Z,43.00
2018-09-10T05:24:14.045Z,42.50
2018-09-10T05:26:46.143Z,41.70
2018-09-10T05:29:16.439Z,40.90
2018-09-10T05:31:45.702Z,41.10
2018-09-10T05:34:14.735Z,41.60
2018-09-10T05:36:43.991Z,41.40
2018-09-10T05:39:13.200Z,40.80
2018-09-10T05:41:42.607Z,41.10
2018-09-10T05:44:11.730Z,41.40
2018-09-10T05:46:41.166Z,41.50
2018-09-10T05:49:10.570Z,41.70
2018-09-10T05:51:39.786Z,41.80
2018-09-10T05:54:09.123Z,40.70
2018-09-10T05:56:38.702Z,40.50
2018-09-10T05:59:07.799Z,39.70
2018-09-10T06:01:37.380Z,38.90
2018-09-10T06:04:07.803Z,37.50
2018-09-10T06:06:37.022Z,35.80
2018-09-10T06:09:07.420Z,35.40
2018-09-10T06:11:38.085Z,33.90
2018-09-10T06:14:07.717Z,33.20
2018-09-10T06:16:36.784Z,32.60
2018-09-10T06:19:06.107Z,32.30
2018-09-10T06:21:35.270Z,32.10
2018-09-10T06:24:04.669Z,30.40
2018-09-10T06:26:33.849Z,29.70
2018-09-10T06:29:02.938Z,28.70
2018-09-10T06:31:32.080Z,27.40
2018-09-10T06:34:03.278Z,27.10
2018-09-10T06:36:32.435Z,25.50
2018-09-10T06:39:01.427Z,25.10
2018-09-10T06:41:30.579Z,23.50
2018-09-10T06:43:59.648Z,23.00
2018-09-10T06:46:28.867Z,22.40
2018-09-10T06:48:58.865Z,21.30
2018-09-10T06:51:28.055Z,20.20
2018-09-10T06:53:57.239Z,20.10
2018-09-10T06:56:26.714Z,19.50
2018-09-10T06:58:55.659Z,18.10
2018-09-10T07:01:24.673Z,17.30
2018-09-10T07:03:54.667Z,17.00
2018-09-10T07:06:24.114Z,16.10
2018-09-10T07:08:53.266Z,16.50
2018-09-10T07:11:25.902Z,15.40
2018-09-10T07:13:55.147Z,15.60
2018-09-10T07:16:24.275Z,15.10
2018-09-10T07:18:53.703Z,15.50
2018-09-10T07:21:22.800Z,15.60
2018-09-10T07:23:52.005Z,15.50
2018-09-10T07:26:21.958Z,14.20
2018-09-10T07:28:51.023Z,15.00
2018-09-10T07:31:20.201Z,15.50
2018-09-10T07:33:50.603Z,15.80
2018-09-10T07:36:19.607Z,15.60
2018-09-10T07:38:48.716Z,14.80
2018-09-10T07:41:17.682Z,15.50
2018-09-10T07:43:47.273Z,14.80
2018-09-10T07:46:16.278Z,13.30
2018-09-10T07:48:45.347Z,13.80
2018-09-10T07:51:14.618Z,12.50
2018-09-10T07:53:43.842Z,12.10
2018-09-10T07:56:12.859Z,11.40
2018-09-10T07:58:41.950Z,10.30
2018-09-10T08:01:11.026Z,9.40
2018-09-10T08:03:41.080Z,9.80
2018-09-10T08:06:10.131Z,9.00
2018-09-10T08:08:39.211Z,8.70
2018-09-10T08:11:08.989Z,8.40
2018-09-10T08:13:38.658Z,8.20
2018-09-10T08:16:07.897Z,8.00
2018-09-10T08:18:38.277Z,7.20
2018-09-10T08:21:07.443Z,7.20
2018-09-10T08:23:36.555Z,6.90
2018-09-10T08:26:06.918Z,7.20
2018-09-10T08:28:36.011Z,6.70
2018-09-10T08:31:05.954Z,6.80
2018-09-10T08:33:35.314Z,6.50
2018-09-10T08:36:04.399Z,7.40
2018-09-10T08:38:33.475Z,6.50
2018-09-10T08:41:02.955Z,6.10
2018-09-10T08:43:32.116Z,6.40
2018-09-10T08:46:01.235Z,6.20
2018-09-10T08:48:31.567Z,6.30
2018-09-10T08:51:00.776Z,6.00
2018-09-10T08:53:29.884Z,6.30
2018-09-10T08:55:59.311Z,6.00
2018-09-10T08:58:28.145Z,6.10
2018-09-10T09:00:57.337Z,6.10
2018-09-10T09:03:27.212Z,5.20
2018-09-10T09:05:56.343Z,5.00
2018-09-10T09:08:26.305Z,5.90
2018-09-10T09:10:59.216Z,5.70
2018-09-10T09:13:28.185Z,5.30
2018-09-10T09:15:57.340Z,4.40
2018-09-10T09:18:28.255Z,5.60
2018-09-10T09:20:57.178Z,6.00
2018-09-10T09:23:26.915Z,6.40
2018-09-10T09:25:56.353Z,6.50
2018-09-10T09:28:25.485Z,7.20
2018-09-10T09:30:54.666Z,6.60
2018-09-10T09:33:24.978Z,6.50
2018-09-10T09:36:00.156Z,8.20
2018-09-10T09:39:33.943Z,7.90
2018-09-10T09:42:08.025Z,7.70
2018-09-10T09:44:43.470Z,8.00
2018-09-10T09:47:12.545Z,7.90
2018-09-10T09:49:41.630Z,7.00
2018-09-10T09:52:10.781Z,6.40
2018-09-10T09:54:39.803Z,7.00
2018-09-10T09:57:09.630Z,6.90
2018-09-10T09:59:38.832Z,7.60
2018-09-10T10:02:13.205Z,8.20
2018-09-10T10:04:42.490Z,8.90
2018-09-10T10:07:11.723Z,8.10
2018-09-10T10:09:42.254Z,8.10
2018-09-10T10:12:11.888Z,7.80
2018-09-10T10:14:40.869Z,7.80
2018-09-10T10:17:12.486Z,8.20
2018-09-10T10:19:41.567Z,8.80
2018-09-10T10:22:10.828Z,8.80
2018-09-10T10:24:40.949Z,7.80
2018-09-10T10:27:10.053Z,7.90
2018-09-10T10:29:39.038Z,7.40
2018-09-10T10:32:09.800Z,7.90
2018-09-10T10:34:38.873Z,8.10
2018-09-10T10:37:08.264Z,8.20
2018-09-10T10:39:38.885Z,8.20
2018-09-10T10:42:08.082Z,7.90
2018-09-10T10:44:37.407Z,6.90
2018-09-10T10:47:07.814Z,6.60
2018-09-10T10:49:36.755Z,7.20
2018-09-10T10:52:06.045Z,7.10
2018-09-10T10:54:36.789Z,7.80
2018-09-10T10:57:05.937Z,7.20
2018-09-10T10:59:35.063Z,7.60
2018-09-10T11:02:04.288Z,8.80
2018-09-10T11:04:33.589Z,8.60
2018-09-10T11:07:02.689Z,7.60
2018-09-10T11:09:31.817Z,8.30
2018-09-10T11:12:00.840Z,7.70
2018-09-10T11:14:29.933Z,7.50
2018-09-10T11:16:59.667Z,7.20
2018-09-10T11:19:28.817Z,7.10
2018-09-10T11:21:57.879Z,8.40
2018-09-10T11:24:27.005Z,7.50
2018-09-10T11:26:56.123Z,8.20
2018-09-10T11:29:26.352Z,8.40
2018-09-10T11:31:55.353Z,8.40
2018-09-10T11:34:24.263Z,9.20
2018-09-10T11:36:56.616Z,9.50
2018-09-10T11:39:25.850Z,9.90
2018-09-10T11:41:55.148Z,10.30
2018-09-10T11:44:26.157Z,11.00
2018-09-10T11:46:55.256Z,12.50
2018-09-10T11:49:24.458Z,11.90
2018-09-10T11:51:53.611Z,12.10
2018-09-10T11:54:22.711Z,12.40
2018-09-10T11:56:52.213Z,13.00
2018-09-10T11:59:21.345Z,13.30
2018-09-10T12:01:50.762Z,14.30
2018-09-10T12:04:19.851Z,13.80
2018-09-10T12:06:49.068Z,14.40
2018-09-10T12:09:18.219Z,14.40
2018-09-10T12:11:47.194Z,14.50
2018-09-10T12:14:17.577Z,14.40
2018-09-10T12:16:46.804Z,14.50
2018-09-10T12:19:15.862Z,14.10
2018-09-10T12:21:45.012Z,15.90
2018-09-10T12:24:14.095Z,15.90
2018-09-10T12:26:43.254Z,15.70
2018-09-10T12:29:13.909Z,15.90
2018-09-10T12:31:43.090Z,16.00
2018-09-10T12:34:12.166Z,16.80
2018-09-10T12:36:42.307Z,15.60
2018-09-10T12:39:11.947Z,14.80
2018-09-10T12:41:41.410Z,17.10
2018-09-10T12:44:10.406Z,16.30
2018-09-10T12:46:39.508Z,17.20
2018-09-10T12:49:08.584Z,17.00
2018-09-10T12:51:37.630Z,17.80
2018-09-10T12:54:06.808Z,17.00
2018-09-10T12:56:36.004Z,16.60
2018-09-10T12:59:05.712Z,17.40
2018-09-10T13:01:34.785Z,17.40
2018-09-10T13:04:04.023Z,17.60
2018-09-10T13:06:35.948Z,17.60
2018-09-10T13:09:06.312Z,17.70
2018-09-10T13:11:35.548Z,17.20
2018-09-10T13:14:04.783Z,17.50
2018-09-10T13:16:34.050Z,18.60
2018-09-10T13:19:02.961Z,18.10
2018-09-10T13:21:33.009Z,18.40
2018-09-10T13:24:02.333Z,17.80
2018-09-10T13:26:31.448Z,17.80
2018-09-10T13:29:01.366Z,18.60
2018-09-10T13:31:30.379Z,18.50
2018-09-10T13:33:59.411Z,19.80
2018-09-10T13:36:28.637Z,18.80
2018-09-10T13:38:57.606Z,20.30
2018-09-10T13:41:26.712Z,19.30
2018-09-10T13:43:59.033Z,18.90
2018-09-10T13:46:28.132Z,18.30
2018-09-10T13:48:57.347Z,19.20
2018-09-10T13:51:26.803Z,18.10
2018-09-10T13:53:55.764Z,19.40
2018-09-10T13:56:25.597Z,19.30
2018-09-10T13:58:54.753Z,19.50
2018-09-10T14:01:23.882Z,19.70
2018-09-10T14:03:53.052Z,19.80
2018-09-10T14:06:23.569Z,19.50
2018-09-10T14:08:53.427Z,19.40
2018-09-10T14:11:22.518Z,19.80
2018-09-10T14:13:51.660Z,19.30
2018-09-10T14:16:20.740Z,18.30
2018-09-10T14:18:49.878Z,19.40
2018-09-10T14:21:20.482Z,18.40
2018-09-10T14:23:49.799Z,19.10
2018-09-10T14:26:18.810Z,19.60
2018-09-10T14:28:48.274Z,19.40
2018-09-10T14:31:17.377Z,18.70
2018-09-10T14:33:46.494Z,19.40
2018-09-10T14:36:16.587Z,19.60
2018-09-10T14:38:45.847Z,19.80
2018-09-10T14:41:15.086Z,20.00
2018-09-10T14:43:44.920Z,18.70
2018-09-10T14:46:14.096Z,19.20
2018-09-10T14:48:43.098Z,18.80
2018-09-10T14:51:12.674Z,19.00
2018-09-10T14:53:41.836Z,19.80
2018-09-10T14:56:10.968Z,19.30
2018-09-10T14:58:40.106Z,19.20
2018-09-10T15:01:09.207Z,18.70
2018-09-10T15:03:38.310Z,19.70
2018-09-10T15:06:11.327Z,19.40
2018-09-10T15:08:40.635Z,19.10
2018-09-10T15:11:09.809Z,19.10
2018-09-10T15:13:39.900Z,19.10
2018-09-10T15:16:09.206Z,19.40
2018-09-10T15:18:38.513Z,19.70
2018-09-10T15:21:10.042Z,19.30
2018-09-10T15:23:40.855Z,20.20
2018-09-10T15:26:10.005Z,19.90
2018-09-10T15:28:40.085Z,19.70
2018-09-10T15:31:08.957Z,19.60
2018-09-10T15:33:38.100Z,20.10
2018-09-10T15:36:08.365Z,20.10
2018-09-10T15:38:37.485Z,19.90
2018-09-10T15:41:06.766Z,19.90
2018-09-10T15:43:35.946Z,21.00
2018-09-10T15:46:05.954Z,20.90
2018-09-10T15:48:35.127Z,19.60
2018-09-10T15:51:05.511Z,20.60
2018-09-10T15:53:34.949Z,20.30
2018-09-10T15:56:04.213Z,20.00
2018-09-10T15:58:34.054Z,20.90
2018-09-10T16:01:03.798Z,20.70
2018-09-10T16:03:32.902Z,20.80
2018-09-10T16:06:02.421Z,20.90
2018-09-10T16:08:32.155Z,21.10
2018-09-10T16:11:01.234Z,21.20
2018-09-10T16:13:30.691Z,21.30
2018-09-10T16:16:00.160Z,21.00
2018-09-10T16:18:30.272Z,21.50
2018-09-10T16:21:00.397Z,20.90
2018-09-10T16:23:29.453Z,21.20
2018-09-10T16:25:58.758Z,21.10
2018-09-10T16:28:28.426Z,22.10
2018-09-10T16:30:57.625Z,21.40
2018-09-10T16:33:26.661Z,21.10
2018-09-10T16:35:57.789Z,21.20
2018-09-10T16:38:29.557Z,21.20
2018-09-10T16:40:59.318Z,21.80
2018-09-10T16:43:28.409Z,22.20
2018-09-10T16:45:57.783Z,22.40
2018-09-10T16:48:27.019Z,21.90
2018-09-10T16:50:56.258Z,21.60
2018-09-10T16:53:25.568Z,21.80
2018-09-10T16:55:54.928Z,22.20
2018-09-10T16:58:24.961Z,22.60
2018-09-10T17:00:55.966Z,22.50
2018-09-10T17:03:25.560Z,22.50
2018-09-10T17:05:55.236Z,22.70
2018-09-10T17:08:24.719Z,23.00
2018-09-10T17:10:54.962Z,23.30
2018-09-10T17:13:24.370Z,23.20
2018-09-10T17:15:54.105Z,23.10
2018-09-10T17:18:22.874Z,23.30
2018-09-10T17:20:52.332Z,22.90
2018-09-10T17:23:21.497Z,23.70
2018-09-10T17:25:52.917Z,23.90
2018-09-10T17:28:24.659Z,23.90
2018-09-10T17:30:53.636Z,23.80
2018-09-10T17:33:23.248Z,23.90
2018-09-10T17:35:52.198Z,24.10
2018-09-10T17:38:21.108Z,23.80
2018-09-10T17:40:50.076Z,23.80
2018-09-10T17:43:19.623Z,24.40
2018-09-10T17:45:48.723Z,23.70
2018-09-10T17:48:17.633Z,24.50
2018-09-10T17:50:54.680Z,24.00
2018-09-10T17:53:23.927Z,24.40
2018-09-10T17:55:53.359Z,24.70
2018-09-10T17:58:22.790Z,24.80
2018-09-10T18:00:52.096Z,24.50
2018-09-10T18:03:21.314Z,24.70
2018-09-10T18:05:53.509Z,24.90
2018-09-10T18:08:23.348Z,25.60
2018-09-10T18:10:52.634Z,24.50
2018-09-10T18:13:21.446Z,25.30
2018-09-10T18:15:50.399Z,24.40
2018-09-10T18:18:19.225Z,25.30
2018-09-10T18:20:49.161Z,25.40
2018-09-10T18:23:19.117Z,25.30
2018-09-10T18:25:48.341Z,26.00
2018-09-10T18:28:17.664Z,25.20
2018-09-10T18:30:48.835Z,25.40
2018-09-10T18:33:18.459Z,24.70
2018-09-10T18:35:47.546Z,25.30
2018-09-10T18:38:16.592Z,25.90
2018-09-10T18:40:45.671Z,25.60
2018-09-10T18:43:14.705Z,26.10
2018-09-10T18:45:44.250Z,25.80
2018-09-10T18:48:13.441Z,25.30
2018-09-10T18:50:43.062Z,25.90
2018-09-10T18:53:12.270Z,26.10
2018-09-10T18:55:41.270Z,26.10
2018-09-10T18:58:10.882Z,26.80
2018-09-10T19:00:39.994Z,26.10
2018-09-10T19:03:08.866Z,26.40
2018-09-10T19:05:37.699Z,26.70
2018-09-10T19:08:07.319Z,26.20
2018-09-10T19:10:36.702Z,27.30
2018-09-10T19:13:06.902Z,26.90
2018-09-10T19:15:36.319Z,27.50
2018-09-10T19:18:05.462Z,27.20
2018-09-10T19:20:34.544Z,26.60
2018-09-10T19:23:04.472Z,27.20
2018-09-10T19:25:33.524Z,27.70
2018-09-10T19:28:02.709Z,28.20
2018-09-10T19:30:34.583Z,28.20
2018-09-10T19:33:04.049Z,28.20
2018-09-10T19:35:33.133Z,28.10
2018-09-10T19:38:03.102Z,28.00
2018-09-10T19:40:32.173Z,28.00
2018-09-10T19:43:01.306Z,28.10
2018-09-10T19:45:30.435Z,28.00
2018-09-10T19:47:59.395Z,28.10
2018-09-10T19:50:28.430Z,27.60
2018-09-10T19:52:57.745Z,28.10
2018-09-10T19:55:27.467Z,28.10
2018-09-10T19:58:03.053Z,27.90
2018-09-10T20:00:32.134Z,28.30
2018-09-10T20:03:02.225Z,28.60
2018-09-10T20:05:31.746Z,28.60
2018-09-10T20:08:01.056Z,28.70
2018-09-10T20:10:30.163Z,28.50
2018-09-10T20:13:01.083Z,28.60
2018-09-10T20:15:30.282Z,28.90
2018-09-10T20:17:59.385Z,28.50
2018-09-10T20:20:29.210Z,29.20
2018-09-10T20:22:58.449Z,29.40
2018-09-10T20:25:27.657Z,29.30
2018-09-10T20:27:57.128Z,29.30
2018-09-10T20:30:26.197Z,29.40
2018-09-10T20:32:55.294Z,29.30
2018-09-10T20:35:24.499Z,29.20
2018-09-10T20:37:53.525Z,29.50
2018-09-10T20:40:22.636Z,29.50
2018-09-10T20:42:51.811Z,29.10
2018-09-10T20:45:20.759Z,29.10
2018-09-10T20:47:49.885Z,29.60
2018-09-10T20:50:20.488Z,29.20
2018-09-10T20:52:49.541Z,29.90
2018-09-10T20:55:18.574Z,29.40
2018-09-10T20:57:48.093Z,29.30
2018-09-10T21:00:17.292Z,29.50
2018-09-10T21:02:46.388Z,29.50
2018-09-10T21:05:16.987Z,29.90
2018-09-10T21:07:46.076Z,30.80
2018-09-10T21:10:15.376Z,29.60
2018-09-10T21:12:46.448Z,29.70
2018-09-10T21:15:15.443Z,29.70
2018-09-10T21:17:44.545Z,30.00
2018-09-10T21:20:14.550Z,30.00
2018-09-10T21:22:43.692Z,30.30
2018-09-10T21:25:12.713Z,30.10
2018-09-10T21:27:41.858Z,30.30
2018-09-10T21:30:10.941Z,30.60
2018-09-10T21:32:40.051Z,30.00
2018-09-10T21:35:09.444Z,30.60
2018-09-10T21:37:38.595Z,30.00
2018-09-10T21:40:08.615Z,31.50
2018-09-10T21:42:38.270Z,30.20
2018-09-10T21:45:07.493Z,30.20
2018-09-10T21:47:36.482Z,30.30
2018-09-10T21:50:05.506Z,30.60
2018-09-10T21:52:34.910Z,31.30
2018-09-10T21:55:04.035Z,31.20
2018-09-10T21:57:34.171Z,30.90
2018-09-10T22:00:03.360Z,31.80
2018-09-10T22:02:32.479Z,31.80
2018-09-10T22:05:02.262Z,31.80
2018-09-10T22:07:31.409Z,32.30
2018-09-10T22:10:00.800Z,32.40
2018-09-10T22:12:31.399Z,32.70
2018-09-10T22:15:00.595Z,32.80
2018-09-10T22:17:29.805Z,33.00
2018-09-10T22:19:59.518Z,33.20
2018-09-10T22:22:28.545Z,32.10
2018-09-10T22:24:57.557Z,32.80
2018-09-10T22:27:26.653Z,32.60
2018-09-10T22:29:55.800Z,32.50
2018-09-10T22:32:25.133Z,32.90
2018-09-10T22:34:54.424Z,33.20
2018-09-10T22:37:23.536Z,33.80
2018-09-10T22:39:53.436Z,34.00
2018-09-10T22:42:22.589Z,34.20
2018-09-10T22:44:51.659Z,34.40
2018-09-10T22:47:23.872Z,34.30
2018-09-10T22:49:52.869Z,35.20
2018-09-10T22:52:21.906Z,35.20
2018-09-10T22:54:51.565Z,35.20
2018-09-10T22:57:20.745Z,36.00
2018-09-10T22:59:49.855Z,36.00
2018-09-10T23:02:21.109Z,35.90
2018-09-10T23:04:50.115Z,35.20
2018-09-10T23:07:19.225Z,36.50
2018-09-10T23:09:49.348Z,35.70
2018-09-10T23:12:18.399Z,35.80
2018-09-10T23:14:47.479Z,36.20
2018-09-10T23:17:18.485Z,36.60
2018-09-10T23:19:47.815Z,36.80
2018-09-10T23:22:17.089Z,37.30
2018-09-10T23:24:46.325Z,37.30
2018-09-10T23:27:15.426Z,37.20
2018-09-10T23:29:44.646Z,37.40
2018-09-10T23:32:13.878Z,37.40
2018-09-10T23:34:42.862Z,37.40
2018-09-10T23:37:12.083Z,38.30
2018-09-10T23:39:42.052Z,38.30
2018-09-10T23:42:11.520Z,37.90
2018-09-10T23:44:41.414Z,37.90
2018-09-10T23:47:10.789Z,38.40
2018-09-10T23:49:40.097Z,38.40
2018-09-10T23:52:09.308Z,38.30
2018-09-10T23:54:38.602Z,38.40
2018-09-10T23:57:07.857Z,38.70
2018-09-10T23:59:36.941Z,38.90
